Flight Track Log - Related Links

Times and Time Zones

All times are in EST time to prevent confusion due to time zone crossing. See the SKW4679 flight status page for this flight to view local times or setup timezone preferences in your user account.

Time Position Orientation Groundspeed Altitude Reporting Facility
EST Latitude Longitude Course Direction KTS MPH feet Rate Location/Type
Fri 01:13:08 PM 44.8167 -93.2167 152° Southeast 187 215 2,900  Level Minneapolis TRACON
Fri 01:14:22 PM 44.7458 -93.2056 174° South 247 284 5,400 2,515 Climbing Minneapolis Center
Fri 01:15:00 PM 44.4261 -93.0478 152° Southeast  Level Estimated
Fri 01:15:24 PM 44.6694 -93.1925 173° South 267 307 8,600  Level Minneapolis Center
Fri 01:16:00 PM 44.3121 -93.0047 144° Southeast  Level Estimated
Fri 01:16:26 PM 44.5739 -93.1717 171° South 296 341 11,600  Level Minneapolis Center
Fri 01:17:00 PM 44.1981 -92.9618 152° Southeast  Level Estimated
Fri 01:17:28 PM 44.4928 -93.1053 150° Southeast 340 391 13,500  Level Minneapolis Center
Fri 01:18:00 PM 44.0840 -92.9190 152° Southeast  Level Estimated
Fri 01:18:30 PM 44.4053 -93.0375 151° Southeast 359 413 15,900  Level Minneapolis Center
Fri 01:19:32 PM 44.3158 -92.9681 151° Southeast 366 421 18,000 2,032 Climbing Minneapolis Center
Fri 01:20:34 PM 44.2222 -92.8983 152° Southeast 378 435 20,100 1,984 Climbing Minneapolis Center
Fri 01:21:36 PM 44.1256 -92.8314 154° Southeast 386 444 22,100 1,935 Climbing Minneapolis Center
Fri 01:22:38 PM 44.0069 -92.7508 154° Southeast 395 455 24,100 1,645 Climbing Minneapolis Center
Fri 01:23:40 PM 43.9042 -92.6817 154° Southeast 408 470 25,500 1,306 Climbing Minneapolis Center
Fri 01:24:42 PM 43.7933 -92.6064 154° Southeast 423 487 26,800 1,210 Climbing Minneapolis Center
Fri 01:25:44 PM 43.6758 -92.5797 171° South 429 494 28,000 1,210 Climbing Minneapolis Center
Fri 01:26:46 PM 43.5572 -92.5603 173° South 433 498 29,300 1,152 Climbing Minneapolis Center
Fri 01:27:49 PM 43.4369 -92.5400 173° South 437 503 30,400 1,008 Climbing Minneapolis Center
Fri 01:28:51 PM 43.3144 -92.5192 173° South 444 511 31,400 1,113 Climbing Minneapolis Center
Fri 01:29:53 PM 43.1664 -92.4972 174° South 449 517 32,700 1,074 Climbing Minneapolis Center
Fri 01:30:26 PM 43.1164 -92.4886 173° South 445 512 33,100 695 Climbing Chicago Center
Fri 01:31:28 PM 42.9686 -92.4647 173° South 448 516 33,800 677 Climbing Chicago Center
Fri 01:32:30 PM 42.8422 -92.4433 173° South 458 527 34,500 823 Climbing Chicago Center
Fri 01:33:32 PM 42.7164 -92.4239 174° South 461 531 35,500 726 Climbing Chicago Center
Fri 01:34:34 PM 42.5933 -92.4031 173° South 452 520 36,000 339 Climbing Chicago Center
Fri 01:35:36 PM 42.4700 -92.3867 174° South 453 521 36,200 484 Climbing Chicago Center
Fri 01:36:38 PM 42.3222 -92.3700 175° South 449 517 37,000 387 Climbing Chicago Center
Fri 01:37:40 PM 42.1983 -92.3564 175° South 450 518 37,000  Level Chicago Center
Fri 01:38:41 PM 42.0733 -92.3408 175° South 452 520 37,000  Level Chicago Center
Fri 01:39:43 PM 41.9500 -92.3272 175° South 448 516 37,000  Level Chicago Center
Fri 01:40:45 PM 41.8294 -92.3142 175° South 439 505 37,000  Level Chicago Center
Fri 01:41:47 PM 41.6872 -92.2967 175° South 432 497 37,000  Level Chicago Center
Fri 01:42:49 PM 41.5692 -92.2839 175° South 427 491 37,000  Level Chicago Center
Fri 01:43:51 PM 41.4533 -92.2711 175° South 422 486 37,000  Level Chicago Center
Fri 01:44:53 PM 41.3372 -92.2572 175° South 419 482 37,000  Level Chicago Center
Fri 01:45:55 PM 41.2189 -92.2450 176° South 417 480 37,000  Level Chicago Center
Fri 01:46:57 PM 41.1022 -92.2308 175° South 421 484 37,000  Level Chicago Center
Fri 01:47:59 PM 40.9850 -92.2172 175° South 421 484 37,000  Level Chicago Center
Fri 01:49:01 PM 40.8425 -92.2019 175° South 428 493 37,000  Level Chicago Center
Fri 01:50:03 PM 40.7239 -92.1886 175° South 427 491 37,000  Level Chicago Center
Fri 01:51:05 PM 40.6042 -92.1756 175° South 430 495 37,000  Level Chicago Center
Fri 01:52:07 PM 40.4831 -92.1628 175° South 434 499 37,000  Level Chicago Center
Fri 01:53:09 PM 40.3639 -92.1494 175° South 429 494 37,000  Level Chicago Center
Fri 01:54:02 PM 40.2450 -92.1356 175° South 426 490 37,000  Level Kansas City Center
Fri 01:55:04 PM 40.1278 -92.1225 175° South 422 486 37,000  Level Kansas City Center
Fri 01:56:06 PM 40.0106 -92.1092 175° South 421 484 37,000  Level Kansas City Center
Fri 01:57:08 PM 39.8925 -92.0981 176° South 422 486 37,000  Level Kansas City Center
Fri 01:58:10 PM 39.7761 -92.0850 175° South 422 486 37,000  Level Kansas City Center
Fri 01:59:12 PM 39.6639 -92.0669 173° South 404 465 37,000  Level Kansas City Center
Fri 02:00:14 PM 39.5233 -92.0519 175° South 418 481 37,000  Level Kansas City Center
Fri 02:01:16 PM 39.4067 -92.0400 175° South 420 483 37,000  Level Kansas City Center
Fri 02:02:18 PM 39.2914 -92.0275 175° South 415 478 37,000  Level Kansas City Center
Fri 02:03:20 PM 39.1786 -92.0175 176° South 410 472 37,000  Level Kansas City Center
Fri 02:04:22 PM 39.0614 -92.0042 175° South 415 478 37,000  Level Kansas City Center
Fri 02:05:24 PM 38.9453 -91.9844 172° South 419 482 37,000  Level Kansas City Center
Fri 02:06:27 PM 38.8036 -91.9483 169° South 426 490 37,000  Level Kansas City Center
Fri 02:07:29 PM 38.6861 -91.9175 168° South 427 491 37,000  Level Kansas City Center
Fri 02:08:31 PM 38.5692 -91.8875 169° South 426 490 37,000  Level Kansas City Center
Fri 02:09:33 PM 38.4517 -91.8561 168° South 426 490 37,000  Level Kansas City Center
Fri 02:10:35 PM 38.3342 -91.8261 169° South 426 490 37,000  Level Kansas City Center
Fri 02:11:37 PM 38.2153 -91.7967 169° South 430 495 37,000  Level Kansas City Center
Fri 02:12:39 PM 38.0972 -91.7667 169° South 429 494 37,000  Level Kansas City Center
Fri 02:13:41 PM 37.9794 -91.7367 169° South 427 491 37,000  Level Kansas City Center
Fri 02:14:43 PM 37.8614 -91.7072 169° South 428 493 37,000 -242 Level Kansas City Center
Fri 02:15:45 PM 37.7211 -91.6725 169° South 424 488 36,500 -726 Descending Kansas City Center
Fri 02:16:47 PM 37.6011 -91.6425 169° South 431 496 35,500 -968 Descending Kansas City Center
Fri 02:17:49 PM 37.4806 -91.6122 169° South 437 503 34,500 -968 Descending Kansas City Center
Fri 02:18:51 PM 37.3653 -91.5844 169° South 425 489 33,500 -726 Descending Kansas City Center
Fri 02:19:53 PM 37.2547 -91.5572 169° South 407 468 33,000 -242 Descending Kansas City Center
Fri 02:20:55 PM 37.1442 -91.5300 169° South 404 465 33,000 48 Level Kansas City Center
Fri 02:21:57 PM 37.0303 -91.5033 169° South 409 471 33,100 48 Climbing Kansas City Center
Fri 02:22:59 PM 36.8958 -91.4708 169° South 409 471 33,100 -532 Level Kansas City Center
Fri 02:24:01 PM 36.7864 -91.4428 168° South 403 464 32,000 -1,065 Descending Kansas City Center
Fri 02:25:03 PM 36.6744 -91.4136 168° South 404 465 30,900 -1,036 Descending Kansas City Center
Fri 02:25:51 PM 36.5858 -91.3786 162° South 417 480 30,100 -764 Descending Memphis Center
Fri 02:26:53 PM 36.4797 -91.3358 162° South 419 482 29,500 -1,065 Descending Memphis Center
Fri 02:27:55 PM 36.3672 -91.2906 162° South 422 486 27,900 -1,500 Descending Memphis Center
Fri 02:28:57 PM 36.2550 -91.2483 163° South 423 487 26,400 -1,597 Descending Memphis Center
Fri 02:29:59 PM 36.1258 -91.1981 163° South 417 480 24,600 -1,104 Descending Memphis Center
Fri 02:31:02 PM 36.0194 -91.1558 162° South 412 474 24,100 -336 Descending Memphis Center
Fri 02:32:04 PM 35.9142 -91.1133 162° South 406 467 23,900 -871 Descending Memphis Center
Fri 02:33:06 PM 35.8083 -91.0706 162° South 403 464 22,300 -1,500 Descending Memphis Center
Fri 02:34:08 PM 35.7119 -91.0119 154° Southeast 390 449 20,800 -1,597 Descending Memphis Center
Fri 02:35:10 PM 35.6008 -90.9469 155° Southeast 386 444 19,000 -1,403 Descending Memphis Center
Fri 02:36:12 PM 35.5078 -90.8900 154° Southeast 375 432 17,900 -1,258 Descending Memphis Center
Fri 02:37:14 PM 35.4564 -90.7681 117° Southeast 395 455 16,400 -1,452 Descending Memphis Center
Fri 02:38:16 PM 35.4092 -90.6439 115° Southeast 401 461 14,900 -1,452 Descending Memphis Center
Fri 02:39:18 PM 35.3656 -90.5283 115° Southeast 380 437 13,400 -1,500 Descending Memphis Center
Fri 02:40:20 PM 35.3128 -90.4269 123° Southeast 357 411 11,800 -1,597 Descending Memphis Center
Fri 02:41:22 PM 35.2472 -90.3281 129° Southeast 323 372 10,100 -1,306 Descending Memphis Center
Fri 02:42:24 PM 35.1928 -90.2483 130° Southeast 309 356 9,100 -532 Descending Memphis Center
Fri 02:43:26 PM 35.1403 -90.1703 129° Southeast 298 343 9,000 -161 Descending Memphis Center
Fri 02:44:16 PM 35.1000 -90.1167 133° Southeast 256 295 8,800 -709 Descending KMEM
Fri 02:45:16 PM 35.0333 -90.1167 180° South 208 239 7,700 -1,053 Descending KMEM
Fri 02:46:10 PM 34.9833 -90.1000 165° South 219 252 6,800 -864 Descending KMEM
Fri 02:47:28 PM 34.9000 -90.1000 180° South 216 249 5,800 -958 Descending KMEM
Fri 02:48:34 PM 34.8500 -90.0833 165° South 222 255 4,500 -952 Descending KMEM
Fri 02:49:34 PM 34.8500 -90.0167 90° East 192 221 3,800 -667 Descending KMEM
Fri 02:50:22 PM 34.8833 -89.9833 39° Northeast 182 209 3,300 -556 Descending KMEM
Fri 02:51:22 PM 34.9333 -89.9833 360° North 183 211 2,800 -778 Descending KMEM
Fri 02:52:10 PM 34.9667 -89.9833 360° North 160 184 1,900 -947 Descending KMEM
Fri 02:53:16 PM 35.0000 -89.9833 360° North 128 147 1,000 -818 Descending KMEM

Login

Don't have an account? Register now (free) for customized features, flight alerts, and more!